Latest Weather Observations for Samuel Hill

IDQ60801

Issued at 2:02 pm EST Monday 30 March 2015 (issued every 30 minutes, with the page automatically refreshed every 10 minutes)

About weather observations | Map of weather stations | Latest weather observations for QLD | Other Formats
Station Details ID: 033308 Name: SAMUEL HILL AERO Lat: -22.74 Lon: 150.66 Height: 31.0 m
Data from the previous 72 hours. | See also: Recent months at Samuel Hill
Date/Time
EST
Temp
°C
App
Temp
°C
Dew
Point
Rel
Hum
%
Delta-T
°C
Wind Press
QNH
hPa
Press
MSL
hPa
Rain
since 9 am
mm
Dir
 
Spd
km/h
Gust
km/h
Spd
kts
Gust
kts
30/02:00pm 28.6 27.4 20.1 60 5.6 SE 26 41 14 22 1017.7 1017.5 0.0
30/01:30pm 28.6 28.2 20.1 60 5.6 ESE 22 33 12 18 1017.9 1017.7 0.0
30/01:00pm 28.2 27.1 19.4 59 5.7 ESE 24 37 13 20 1018.4 1018.2 0.0
30/12:30pm 28.0 27.1 19.8 61 5.4 SE 24 41 13 22 1018.8 1018.6 0.0
30/12:00pm 28.0 27.3 20.3 63 5.1 ESE 24 37 13 20 1019.1 1018.9 0.0
30/11:30am 28.4 28.7 20.7 63 5.1 SE 20 37 11 20 1019.7 1019.5 0.0
30/11:00am 28.0 27.4 20.6 64 4.9 SE 24 37 13 20 1019.9 1019.7 0.0
30/10:30am 29.0 29.9 22.0 66 4.7 ESE 20 32 11 17 1020.2 1020.0 0.0
30/10:00am 28.2 28.0 20.5 63 5.1 SE 22 33 12 18 1020.4 1020.2 0.0
30/09:30am 28.0 28.5 20.8 65 4.8 ESE 19 32 10 17 1020.5 1020.3 0.0
30/09:00am 27.2 27.5 20.5 67 4.4 ESE 19 30 10 16 1020.4 1020.2 23.6
30/08:30am 26.8 27.0 20.6 69 4.1 ESE 20 30 11 16 1020.3 1020.1 23.6
30/08:00am 26.7 28.1 21.0 71 3.8 ESE 15 22 8 12 1019.9 1019.7 23.6
30/07:30am 25.5 27.3 21.2 77 2.8 SE 13 20 7 11 1019.6 1019.4 23.6
30/07:00am 24.8 26.5 20.9 79 2.6 SE 13 20 7 11 1019.2 1019.0 23.6
30/06:30am 24.3 26.3 20.8 81 2.3 ESE 11 19 6 10 1019.0 1018.8 23.6
30/06:00am 24.2 26.2 20.7 81 2.3 ESE 11 19 6 10 1018.8 1018.6 23.6
30/05:30am 24.1 26.1 20.8 82 2.2 SE 11 15 6 8 1018.6 1018.4 23.6
30/05:00am 24.1 26.1 20.8 82 2.2 ESE 11 17 6 9 1018.2 1018.0 23.6
30/04:30am 24.2 26.3 20.9 82 2.2 SE 11 17 6 9 1018.2 1018.0 23.6
30/04:00am 23.9 26.8 21.0 84 1.9 SE 7 11 4 6 1018.1 1017.9 23.6
30/03:30am 23.6 26.0 20.9 85 1.8 S 9 11 5 6 1017.9 1017.7 23.6
30/03:00am 23.9 25.9 20.8 83 2.0 SSE 11 15 6 8 1017.9 1017.7 23.6
30/02:30am 23.9 26.2 20.6 82 2.2 SE 9 15 5 8 1018.0 1017.8 23.6
30/02:00am 23.9 26.0 21.0 84 1.9 ESE 11 17 6 9 1018.1 1017.9 23.6
30/01:30am 23.7 26.6 21.8 89 1.3 SE 9 13 5 7 1018.6 1018.4 23.6
30/01:00am 23.4 26.2 21.5 89 1.3 SSE 9 11 5 6 1019.0 1018.8 23.6
30/12:30am 23.4 25.9 21.7 90 1.1 SSE 11 15 6 8 1019.4 1019.2 23.6
30/12:00am 23.4 26.3 21.7 90 1.1 S 9 13 5 7 1019.6 1019.4 23.6
 
Date/Time
EST
Temp
°C
App
Temp
°C
Dew
Point
Rel
Hum
%
Delta-T
°C
Wind Press
QNH
hPa
Press
MSL
hPa
Rain
since 9 am
mm
Dir
 
Spd
km/h
Gust
km/h
Spd
kts
Gust
kts
29/11:30pm 23.1 26.3 21.7 92 0.9 SSW 7 9 4 5 1019.9 1019.7 23.6
29/11:00pm 23.4 26.8 22.0 92 0.9 E 7 11 4 6 1020.3 1020.1 23.6
29/10:41pm 23.0 25.8 21.6 92 0.9 ESE 9 15 5 8 1020.3 1020.1 23.6
29/10:30pm 22.8 25.5 21.4 92 0.9 E 9 17 5 9 1020.4 1020.2 23.4
29/10:00pm 22.7 25.9 21.7 94 0.7 S 7 11 4 6 1020.3 1020.1 17.6
29/09:59pm 22.7 25.9 21.7 94 0.7 S 7 11 4 6 1020.3 1020.1 17.6
29/09:51pm 22.7 26.0 21.5 93 0.8 S 6 9 3 5 1020.4 1020.2 17.4
29/09:32pm 22.6 25.3 21.4 93 0.8 S 9 13 5 7 1020.4 1020.2 17.4
29/09:30pm 22.6 25.2 21.2 92 0.9 SSE 9 13 5 7 1020.4 1020.2 17.2
29/09:14pm 22.6 24.4 21.2 92 0.9 SSE 13 19 7 10 1020.6 1020.4 17.2
29/09:00pm 22.6 23.8 21.4 93 0.8 SSE 17 28 9 15 1020.6 1020.4 17.2
29/08:30pm 22.8 25.2 21.6 93 0.8 S 11 17 6 9 1020.4 1020.2 14.0
29/08:28pm 22.9 25.8 21.7 93 0.8 S 9 17 5 9 1020.4 1020.2 13.8
29/08:22pm 22.8 25.5 21.4 92 0.9 S 9 13 5 7 1020.3 1020.1 13.4
29/08:00pm 22.7 24.6 21.3 92 0.9 E 13 19 7 10 1020.5 1020.3 13.4
29/07:49pm 22.7 26.0 21.5 93 0.8 ENE 6 20 3 11 1020.3 1020.1 12.0
29/07:30pm 22.5 25.7 21.3 93 0.8 NNE 6 7 3 4 1019.9 1019.7 11.0
29/07:16pm 22.5 25.4 21.1 92 0.9 NE 7 11 4 6 1019.9 1019.7 11.0
29/07:00pm 22.4 24.2 21.2 93 0.8 ENE 13 20 7 11 1019.7 1019.5 11.0
29/06:56pm 22.5 24.7 21.1 92 0.9 ENE 11 20 6 11 1019.7 1019.5 11.0
29/06:38pm 22.4 23.4 21.0 92 0.9 ENE 17 22 9 12 1019.6 1019.4 11.0
29/06:30pm 22.4 23.0 21.0 92 0.9 ENE 19 32 10 17 1019.6 1019.4 10.8
29/06:20pm 22.8 23.3 20.9 89 1.2 ENE 19 32 10 17 1019.4 1019.2 8.8
29/06:00pm 23.4 25.4 20.7 85 1.8 E 11 17 6 9 1019.1 1018.9 8.4
29/05:30pm 24.6 25.4 21.3 82 2.2 SE 19 24 10 13 1018.7 1018.5 8.4
29/05:00pm 24.7 26.5 21.8 84 1.9 SE 15 24 8 13 1018.5 1018.3 8.4
29/04:30pm 24.7 27.6 22.4 87 1.5 SE 11 17 6 9 1018.3 1018.1 8.4
29/04:00pm 24.1 27.6 22.2 89 1.3 SE 7 9 4 5 1018.3 1018.1 8.4
29/03:35pm 23.4 26.7 21.8 91 1.1 ENE 7 13 4 7 1018.2 1018.0 8.4
29/03:30pm 23.2 25.6 21.6 91 1.1 ENE 11 19 6 10 1018.2 1018.0 8.4
29/03:04pm 23.3 23.7 21.0 87 1.5 E 20 35 11 19 1018.4 1018.2 4.4
29/03:00pm 23.7 24.0 20.8 84 1.9 ENE 20 28 11 15 1018.2 1018.0 4.0
29/02:59pm 23.9 24.6 21.2 85 1.8 ENE 19 28 10 15 1018.2 1018.0 4.0
29/02:44pm 24.0 25.1 21.3 85 1.8 ENE 17 28 9 15 1018.0 1017.8 4.0
29/02:30pm 24.6 26.7 21.7 84 1.9 E 13 24 7 13 1018.1 1017.9 4.0
29/02:16pm 24.7 27.0 22.8 89 1.3 SSE 15 20 8 11 1018.1 1017.9 4.0
29/02:00pm 24.2 25.1 21.5 85 1.8 S 19 28 10 15 1018.2 1018.0 3.8
29/01:55pm 25.1 26.6 21.2 79 2.6 S 15 28 8 15 1018.2 1018.0 2.4
29/01:30pm 27.6 29.9 22.1 72 3.7 SSE 13 19 7 10 1018.3 1018.1 0.2
29/01:00pm 26.9 28.7 21.2 71 3.8 SSE 13 19 7 10 1018.8 1018.6 0.2
29/12:30pm 25.3 26.6 22.4 84 1.9 SSE 19 26 10 14 1019.1 1018.9 0.2
29/12:16pm 25.3 28.2 22.4 84 1.9 S 11 19 6 10 1019.0 1018.8 0.2
29/12:00pm 24.2 23.8 20.9 82 2.2 SE 24 41 13 22 1019.2 1019.0 0.2
29/11:59am 24.3 23.8 20.8 81 2.3 SE 24 41 13 22 1019.2 1019.0 0.2
29/11:30am 29.3 29.2 19.9 57 6.2 ESE 20 26 11 14 1019.2 1019.0 0.2
29/11:00am 29.7 29.8 20.3 57 6.2 E 20 33 11 18 1019.5 1019.3 0.0
29/10:30am 26.7 28.7 21.5 73 3.5 SE 13 19 7 10 1019.8 1019.6 0.0
29/10:16am 27.2 29.2 22.2 74 3.4 SSE 15 19 8 10 1019.9 1019.7 0.0
29/10:06am 27.8 31.3 24.2 81 2.5 E 13 20 7 11 1019.9 1019.7 0.0
29/10:00am 27.5 30.2 22.9 76 3.1 ENE 13 20 7 11 1019.9 1019.7 0.0
29/09:30am 27.7 28.0 20.5 65 4.7 E 19 32 10 17 1019.9 1019.7 0.0
29/09:00am 28.1 29.4 21.6 68 4.3 SE 17 26 9 14 1019.7 1019.5 0.2
29/08:30am 27.6 29.6 21.6 70 4.0 SE 13 24 7 13 1019.5 1019.3 0.2
29/08:00am 26.5 29.8 22.6 79 2.6 SSE 9 11 5 6 1019.2 1019.0 0.2
29/07:30am 24.1 28.8 22.7 92 0.9 SW 2 7 1 4 1019.1 1018.9 0.2
29/07:00am 22.2 25.8 21.2 94 0.7 SW 4 7 2 4 1018.6 1018.4 0.2
29/06:30am 21.7 25.7 20.5 93 0.8 CALM 0 6 0 3 1018.2 1018.0 0.2
29/06:00am 21.4 23.9 20.2 93 0.8 SW 7 7 4 4 1017.9 1017.7 0.2
29/05:30am 21.9 26.0 20.7 93 0.8 CALM 0 0 0 0 1017.6 1017.4 0.2
29/05:13am 22.1 26.0 21.1 94 0.7 E 2 6 1 3 1017.5 1017.3 0.2
29/05:00am 21.9 25.7 20.9 94 0.7 E 2 7 1 4 1017.4 1017.2 0.2
29/04:52am 21.5 24.6 20.3 93 0.8 NE 4 7 2 4 1017.4 1017.2 0.0
29/04:30am 20.7 23.4 19.5 93 0.8 N 4 13 2 7 1017.0 1016.8 0.0
29/04:00am 20.5 23.1 19.2 92 0.8 SSW 4 6 2 3 1016.7 1016.5 0.0
29/03:30am 20.4 23.5 18.7 90 1.1 CALM 0 0 0 0 1016.5 1016.3 0.0
29/03:00am 20.8 24.1 19.1 90 1.1 CALM 0 0 0 0 1016.7 1016.5 0.0
29/02:30am 20.9 24.2 19.2 90 1.1 CALM 0 0 0 0 1016.8 1016.6 0.0
29/02:00am 21.5 24.6 19.6 89 1.2 S 2 9 1 5 1017.1 1016.9 0.0
29/01:30am 21.9 25.4 19.6 87 1.5 CALM 0 0 0 0 1017.3 1017.1 0.0
29/01:00am 22.3 24.7 19.7 85 1.7 SSE 6 7 3 4 1017.5 1017.3 0.0
29/12:30am 23.2 25.6 19.6 80 2.3 E 6 7 3 4 1017.7 1017.5 0.0
29/12:00am 23.7 26.2 19.8 79 2.5 E 6 7 3 4 1017.9 1017.7 0.0
 
Date/Time
EST
Temp
°C
App
Temp
°C
Dew
Point
Rel
Hum
%
Delta-T
°C
Wind Press
QNH
hPa
Press
MSL
hPa
Rain
since 9 am
mm
Dir
 
Spd
km/h
Gust
km/h
Spd
kts
Gust
kts
28/11:30pm 24.3 26.8 20.2 78 2.7 E 7 9 4 5 1018.1 1017.9 0.0
28/11:00pm 24.7 26.5 20.4 77 2.8 E 11 15 6 8 1018.2 1018.0 0.0
28/10:30pm 24.7 26.9 20.4 77 2.8 E 9 11 5 6 1018.5 1018.3 0.0
28/10:00pm 25.1 27.4 20.6 76 2.9 E 9 13 5 7 1018.6 1018.4 0.0
28/09:30pm 25.0 27.4 20.9 78 2.7 E 9 13 5 7 1018.4 1018.2 0.0
28/09:00pm 25.1 28.2 21.4 80 2.4 E 7 13 4 7 1018.4 1018.2 0.0
28/08:30pm 24.5 27.9 21.0 81 2.3 SSE 4 7 2 4 1018.3 1018.1 0.0
28/08:00pm 24.7 27.8 21.0 80 2.4 SE 6 7 3 4 1017.9 1017.7 0.0
28/07:30pm 25.0 28.9 21.1 79 2.6 ESE 2 11 1 6 1017.4 1017.2 0.0
28/07:00pm 25.3 28.6 20.8 76 3.0 ESE 4 7 2 4 1017.1 1016.9 0.0
28/06:30pm 25.9 28.3 20.9 74 3.3 ESE 9 17 5 9 1016.8 1016.6 0.0
28/06:00pm 26.3 27.2 20.8 71 3.6 SE 17 24 9 13 1016.5 1016.3 0.0
28/05:30pm 27.1 27.9 20.7 68 4.2 ESE 17 26 9 14 1016.3 1016.1 0.0
28/05:00pm 27.7 28.2 20.8 66 4.6 ESE 19 24 10 13 1016.0 1015.8 0.0
28/04:30pm 28.6 29.1 20.9 63 5.1 SE 19 26 10 14 1016.1 1015.9 0.0
28/04:00pm 28.9 29.1 20.1 59 5.8 SE 19 28 10 15 1016.2 1016.0 0.0
28/03:30pm 29.4 29.7 20.3 58 6.0 ESE 19 28 10 15 1016.1 1015.9 0.0
28/03:00pm 29.3 29.6 19.6 56 6.3 E 17 24 9 13 1016.0 1015.8 0.0
28/02:30pm 29.0 29.5 19.3 55 6.3 ESE 15 24 8 13 1016.0 1015.8 0.0
28/02:00pm 29.3 29.7 19.9 57 6.2 ESE 17 26 9 14 1016.2 1016.0 0.0
28/01:30pm 30.0 30.1 20.0 55 6.6 ESE 19 30 10 16 1016.5 1016.3 0.0
28/01:00pm 29.4 29.4 19.7 56 6.3 ESE 19 26 10 14 1016.8 1016.6 0.0
28/12:30pm 29.7 30.3 19.4 54 6.7 ESE 15 19 8 10 1017.2 1017.0 0.0
28/12:00pm 30.1 30.8 20.4 56 6.4 SE 17 26 9 14 1017.6 1017.4 0.0
28/11:30am 29.7 30.0 19.7 55 6.6 ESE 17 30 9 16 1018.1 1017.9 0.0
28/11:00am 29.6 29.8 19.3 54 6.7 ESE 17 26 9 14 1018.4 1018.2 0.0
28/10:30am 29.0 29.0 19.0 54 6.5 SE 17 24 9 13 1018.6 1018.4 0.0
28/10:00am 29.3 29.3 19.0 53 6.7 SE 17 24 9 13 1018.8 1018.6 0.0
28/09:30am 28.9 29.6 20.4 60 5.6 ESE 17 24 9 13 1018.7 1018.5 0.0
28/09:00am 27.6 29.0 20.4 65 4.7 ESE 13 20 7 11 1018.6 1018.4 0.0
28/08:30am 27.1 29.5 20.9 69 4.1 SE 9 13 5 7 1018.5 1018.3 0.0
28/08:00am 26.6 29.4 20.9 71 3.8 S 7 11 4 6 1018.3 1018.1 0.0
28/07:30am 24.5 28.6 21.6 84 1.9 E 2 7 1 4 1017.8 1017.6 0.0
28/07:00am 21.8 25.7 20.3 91 1.0 CALM 0 0 0 0 1017.6 1017.4 0.0
28/06:30am 20.1 23.3 18.9 93 0.8 CALM 0 0 0 0 1017.3 1017.1 0.0
28/06:00am 19.4 22.3 18.1 92 0.8 CALM 0 0 0 0 1016.9 1016.7 0.0
28/05:30am 19.5 22.4 18.2 92 0.8 CALM 0 0 0 0 1016.7 1016.5 0.0
28/05:00am 20.0 23.2 18.8 93 0.8 CALM 0 0 0 0 1016.5 1016.3 0.0
28/04:30am 19.9 23.0 18.6 92 0.8 CALM 0 0 0 0 1016.2 1016.0 0.0
28/04:00am 20.2 23.3 18.7 91 0.9 CALM 0 0 0 0 1016.1 1015.9 0.0
28/03:30am 20.5 23.8 19.2 92 0.8 CALM 0 0 0 0 1016.0 1015.8 0.0
28/03:00am 20.5 23.8 19.0 91 0.9 CALM 0 0 0 0 1016.0 1015.8 0.0
28/02:30am 21.1 24.6 19.6 91 1.0 CALM 0 0 0 0 1016.3 1016.1 0.0
28/02:00am 21.4 25.1 19.9 91 1.0 CALM 0 0 0 0 1016.4 1016.2 0.0
28/01:30am 21.3 24.9 19.8 91 1.0 CALM 0 0 0 0 1016.5 1016.3 0.0
28/01:00am 21.5 25.3 20.1 92 0.9 CALM 0 0 0 0 1016.7 1016.5 0.0
28/12:30am 21.3 24.8 19.6 90 1.1 CALM 0 0 0 0 1017.1 1016.9 0.0
28/12:00am 21.4 25.0 19.7 90 1.1 CALM 0 0 0 0 1017.2 1017.0 0.0
 
Date/Time
EST
Temp
°C
App
Temp
°C
Dew
Point
Rel
Hum
%
Delta-T
°C
Wind Press
QNH
hPa
Press
MSL
hPa
Rain
since 9 am
mm
Dir
 
Spd
km/h
Gust
km/h
Spd
kts
Gust
kts
27/11:30pm 21.6 25.2 19.7 89 1.2 CALM 0 0 0 0 1017.4 1017.2 0.0
27/11:00pm 22.0 25.0 20.1 89 1.2 E 4 7 2 4 1017.5 1017.3 0.0
27/10:30pm 21.8 25.6 20.1 90 1.1 CALM 0 0 0 0 1017.6 1017.4 0.0
27/10:00pm 22.0 25.7 19.9 88 1.3 CALM 0 0 0 0 1017.6 1017.4 0.0
27/09:30pm 22.3 26.1 20.2 88 1.4 CALM 0 6 0 3 1017.4 1017.2 0.0
27/09:00pm 22.7 25.5 20.4 87 1.5 E 6 6 3 3 1017.2 1017.0 0.0
27/08:30pm 22.9 25.6 20.2 85 1.7 E 6 7 3 4 1017.0 1016.8 0.0
27/08:00pm 23.8 26.7 20.7 83 2.0 E 6 6 3 3 1016.8 1016.6 0.0
27/07:30pm 24.1 26.9 20.4 80 2.4 E 6 7 3 4 1016.5 1016.3 0.0
27/07:00pm 24.6 27.4 20.5 78 2.7 ENE 6 11 3 6 1016.2 1016.0 0.0
27/06:30pm 25.5 28.2 20.7 75 3.2 ENE 7 11 4 6 1015.8 1015.6 0.0
27/06:00pm 26.3 28.1 20.4 70 3.9 ENE 11 15 6 8 1015.5 1015.3 0.0
27/05:30pm 27.5 28.9 20.3 65 4.7 ENE 13 19 7 10 1015.2 1015.0 0.0
27/05:00pm 28.8 30.4 20.0 59 5.8 E 11 17 6 9 1015.0 1014.8 0.0
27/04:30pm 29.3 29.8 18.4 51 7.0 ESE 13 17 7 9 1014.8 1014.6 0.0
27/04:00pm 29.8 30.8 19.5 54 6.7 SE 13 20 7 11 1014.7 1014.5 0.0
27/03:30pm 30.1 30.2 19.2 52 7.1 ESE 17 24 9 13 1014.6 1014.4 0.0
27/03:00pm 30.2 29.9 18.3 49 7.6 SE 17 28 9 15 1014.7 1014.5 0.0
27/02:30pm 31.2 31.9 18.9 48 8.0 ESE 13 20 7 11 1014.9 1014.7 0.0

Other Formats:

Comma delimited format used in spreadsheet applications
http://www.bom.gov.au/fwo/IDQ60801/IDQ60801.94370.axf

JavaScript Object Notation format (JSON) in row-major order
http://www.bom.gov.au/fwo/IDQ60801/IDQ60801.94370.json